Terminal Aerodrome Forecast
Issued by NWS Atlanta, GA

Home | Current Version | Previous Version | Text Only | Print | Product List | Glossary On
Versions: 1 2 3 4 5 6 7 8 9 10 11 12 13 14 15 16
000
FTUS42 KFFC 281131
TAFCSG
TAF
KCSG 281131Z 2812/2912 07005KT P6SM BKN200
     FM281400 10010KT P6SM SCT050 BKN120
     FM281700 09005KT 6SM SHRA BKN040
     FM282100 06010G15KT 5SM SHRA OVC035
     FM290100 05009G14KT 5SM SHRA OVC012 PROB30 2903/2909 2SM RA BR
      OVC008=

USA.gov is the U.S. government's official web portal to all federal, state and local government web resources and services.